sensor_id;sensor_type;location;lat;lon;timestamp;temperature;humidity
3348;DHT22;1687;49.540;8.574;2023-12-20T00:00:59;7.80;99.90
3348;DHT22;1687;49.540;8.574;2023-12-20T00:03:24;7.80;99.90
3348;DHT22;1687;49.540;8.574;2023-12-20T00:05:50;7.80;99.90
3348;DHT22;1687;49.540;8.574;2023-12-20T00:08:16;7.80;99.90
3348;DHT22;1687;49.540;8.574;2023-12-20T00:10:43;7.80;99.90
3348;DHT22;1687;49.540;8.574;2023-12-20T00:13:09;7.80;99.90
3348;DHT22;1687;49.540;8.574;2023-12-20T00:15:35;7.80;99.90
3348;DHT22;1687;49.540;8.574;2023-12-20T00:18:01;7.80;99.90
3348;DHT22;1687;49.540;8.574;2023-12-20T00:20:27;7.80;99.90
3348;DHT22;1687;49.540;8.574;2023-12-20T00:22:57;7.90;99.90
3348;DHT22;1687;49.540;8.574;2023-12-20T00:25:24;7.80;99.90
3348;DHT22;1687;49.540;8.574;2023-12-20T00:27:50;7.90;99.90
3348;DHT22;1687;49.540;8.574;2023-12-20T00:30:16;7.90;99.90
3348;DHT22;1687;49.540;8.574;2023-12-20T00:32:42;7.80;99.90
3348;DHT22;1687;49.540;8.574;2023-12-20T00:35:15;7.80;99.90
3348;DHT22;1687;49.540;8.574;2023-12-20T00:37:43;7.80;99.90
3348;DHT22;1687;49.540;8.574;2023-12-20T00:40:09;7.80;99.90
3348;DHT22;1687;49.540;8.574;2023-12-20T00:42:35;7.80;99.90
3348;DHT22;1687;49.540;8.574;2023-12-20T00:45:04;7.80;99.90
3348;DHT22;1687;49.540;8.574;2023-12-20T00:47:31;7.80;99.90
3348;DHT22;1687;49.540;8.574;2023-12-20T00:49:57;7.80;99.90
3348;DHT22;1687;49.540;8.574;2023-12-20T00:52:23;7.80;99.90
3348;DHT22;1687;49.540;8.574;2023-12-20T00:54:49;7.80;99.90
3348;DHT22;1687;49.540;8.574;2023-12-20T00:57:14;7.80;99.90
3348;DHT22;1687;49.540;8.574;2023-12-20T00:59:40;7.70;99.90
3348;DHT22;1687;49.540;8.574;2023-12-20T01:02:06;7.60;99.90
3348;DHT22;1687;49.540;8.574;2023-12-20T01:04:32;7.60;99.90
3348;DHT22;1687;49.540;8.574;2023-12-20T01:06:57;7.60;99.90
3348;DHT22;1687;49.540;8.574;2023-12-20T01:09:23;7.60;99.90
3348;DHT22;1687;49.540;8.574;2023-12-20T01:11:52;7.60;99.90
3348;DHT22;1687;49.540;8.574;2023-12-20T01:14:18;7.60;99.90
3348;DHT22;1687;49.540;8.574;2023-12-20T01:16:43;7.60;99.90
3348;DHT22;1687;49.540;8.574;2023-12-20T01:19:09;7.70;99.90
3348;DHT22;1687;49.540;8.574;2023-12-20T01:21:35;7.70;99.90
3348;DHT22;1687;49.540;8.574;2023-12-20T01:24:01;7.70;99.90
3348;DHT22;1687;49.540;8.574;2023-12-20T01:26:26;7.60;99.90
3348;DHT22;1687;49.540;8.574;2023-12-20T01:28:53;7.60;99.90
3348;DHT22;1687;49.540;8.574;2023-12-20T01:31:18;7.60;99.90
3348;DHT22;1687;49.540;8.574;2023-12-20T01:33:44;7.50;99.90
3348;DHT22;1687;49.540;8.574;2023-12-20T01:36:10;7.50;99.90
3348;DHT22;1687;49.540;8.574;2023-12-20T01:38:37;7.50;99.90
3348;DHT22;1687;49.540;8.574;2023-12-20T01:41:03;7.60;99.90
3348;DHT22;1687;49.540;8.574;2023-12-20T01:43:29;7.60;99.90
3348;DHT22;1687;49.540;8.574;2023-12-20T01:45:57;7.60;99.90
3348;DHT22;1687;49.540;8.574;2023-12-20T01:48:26;7.60;99.90
3348;DHT22;1687;49.540;8.574;2023-12-20T01:50:54;7.60;99.90
3348;DHT22;1687;49.540;8.574;2023-12-20T01:53:21;7.60;99.90
3348;DHT22;1687;49.540;8.574;2023-12-20T01:55:50;7.60;99.90
3348;DHT22;1687;49.540;8.574;2023-12-20T01:58:18;7.70;99.90
3348;DHT22;1687;49.540;8.574;2023-12-20T02:00:44;7.80;99.90
3348;DHT22;1687;49.540;8.574;2023-12-20T02:03:10;7.80;99.90
3348;DHT22;1687;49.540;8.574;2023-12-20T02:05:38;7.80;99.90
3348;DHT22;1687;49.540;8.574;2023-12-20T02:08:04;7.80;99.90
3348;DHT22;1687;49.540;8.574;2023-12-20T02:10:31;7.80;99.90
3348;DHT22;1687;49.540;8.574;2023-12-20T02:12:57;7.80;99.90
3348;DHT22;1687;49.540;8.574;2023-12-20T02:15:23;7.90;99.90
3348;DHT22;1687;49.540;8.574;2023-12-20T02:17:49;7.90;99.90
3348;DHT22;1687;49.540;8.574;2023-12-20T02:20:15;7.90;99.90
3348;DHT22;1687;49.540;8.574;2023-12-20T02:22:40;7.90;99.90
3348;DHT22;1687;49.540;8.574;2023-12-20T02:25:06;7.80;99.90
3348;DHT22;1687;49.540;8.574;2023-12-20T02:27:32;7.80;99.90
3348;DHT22;1687;49.540;8.574;2023-12-20T02:29:58;7.80;99.90
3348;DHT22;1687;49.540;8.574;2023-12-20T02:32:24;7.70;99.90
3348;DHT22;1687;49.540;8.574;2023-12-20T02:34:54;7.70;99.90
3348;DHT22;1687;49.540;8.574;2023-12-20T02:37:20;7.60;99.90
3348;DHT22;1687;49.540;8.574;2023-12-20T02:39:46;7.60;99.90
3348;DHT22;1687;49.540;8.574;2023-12-20T02:42:12;7.70;99.90
3348;DHT22;1687;49.540;8.574;2023-12-20T02:44:37;7.70;99.90
3348;DHT22;1687;49.540;8.574;2023-12-20T02:47:03;7.70;99.90
3348;DHT22;1687;49.540;8.574;2023-12-20T02:49:29;7.70;99.90
3348;DHT22;1687;49.540;8.574;2023-12-20T02:51:54;7.70;99.90
3348;DHT22;1687;49.540;8.574;2023-12-20T02:54:20;7.80;99.90
3348;DHT22;1687;49.540;8.574;2023-12-20T02:56:46;7.80;99.90
3348;DHT22;1687;49.540;8.574;2023-12-20T02:59:13;7.80;99.90
3348;DHT22;1687;49.540;8.574;2023-12-20T03:01:44;7.80;99.90
3348;DHT22;1687;49.540;8.574;2023-12-20T03:04:10;7.80;99.90
3348;DHT22;1687;49.540;8.574;2023-12-20T03:06:37;7.80;99.90
3348;DHT22;1687;49.540;8.574;2023-12-20T03:09:03;7.80;99.90
3348;DHT22;1687;49.540;8.574;2023-12-20T03:11:28;7.70;99.90
3348;DHT22;1687;49.540;8.574;2023-12-20T03:13:55;7.70;99.90
3348;DHT22;1687;49.540;8.574;2023-12-20T03:16:21;7.60;99.90
3348;DHT22;1687;49.540;8.574;2023-12-20T03:18:46;7.60;99.90
3348;DHT22;1687;49.540;8.574;2023-12-20T03:21:12;7.50;99.90
3348;DHT22;1687;49.540;8.574;2023-12-20T03:23:38;7.60;99.90
3348;DHT22;1687;49.540;8.574;2023-12-20T03:26:07;7.70;99.90
3348;DHT22;1687;49.540;8.574;2023-12-20T03:28:33;7.70;99.90
3348;DHT22;1687;49.540;8.574;2023-12-20T03:30:59;7.80;99.90
3348;DHT22;1687;49.540;8.574;2023-12-20T03:33:25;7.80;99.90
3348;DHT22;1687;49.540;8.574;2023-12-20T03:35:51;7.80;99.90
3348;DHT22;1687;49.540;8.574;2023-12-20T03:38:16;7.70;99.90
3348;DHT22;1687;49.540;8.574;2023-12-20T03:40:42;7.70;99.90
3348;DHT22;1687;49.540;8.574;2023-12-20T03:43:08;7.70;99.90
3348;DHT22;1687;49.540;8.574;2023-12-20T03:45:33;7.60;99.90
3348;DHT22;1687;49.540;8.574;2023-12-20T03:47:59;7.60;99.90
3348;DHT22;1687;49.540;8.574;2023-12-20T03:50:25;7.60;99.90
3348;DHT22;1687;49.540;8.574;2023-12-20T03:52:52;7.60;99.90
3348;DHT22;1687;49.540;8.574;2023-12-20T03:55:18;7.60;99.90
3348;DHT22;1687;49.540;8.574;2023-12-20T03:57:43;7.50;99.90
3348;DHT22;1687;49.540;8.574;2023-12-20T04:00:10;7.60;99.90
3348;DHT22;1687;49.540;8.574;2023-12-20T04:02:39;7.60;99.90
3348;DHT22;1687;49.540;8.574;2023-12-20T04:05:06;7.60;99.90
3348;DHT22;1687;49.540;8.574;2023-12-20T04:07:32;7.60;99.90
3348;DHT22;1687;49.540;8.574;2023-12-20T04:09:58;7.60;99.90
3348;DHT22;1687;49.540;8.574;2023-12-20T04:12:24;7.50;99.90
3348;DHT22;1687;49.540;8.574;2023-12-20T04:14:50;7.50;99.90
3348;DHT22;1687;49.540;8.574;2023-12-20T04:17:16;7.40;99.90
3348;DHT22;1687;49.540;8.574;2023-12-20T04:19:42;7.40;99.90
3348;DHT22;1687;49.540;8.574;2023-12-20T04:22:08;7.50;99.90
3348;DHT22;1687;49.540;8.574;2023-12-20T04:24:34;7.50;99.90
3348;DHT22;1687;49.540;8.574;2023-12-20T04:27:00;7.60;99.90
3348;DHT22;1687;49.540;8.574;2023-12-20T04:29:25;7.60;99.90
3348;DHT22;1687;49.540;8.574;2023-12-20T04:31:51;7.60;99.90
3348;DHT22;1687;49.540;8.574;2023-12-20T04:34:17;7.60;99.90
3348;DHT22;1687;49.540;8.574;2023-12-20T04:36:43;7.60;99.90
3348;DHT22;1687;49.540;8.574;2023-12-20T04:39:10;7.70;99.90
3348;DHT22;1687;49.540;8.574;2023-12-20T04:41:36;7.70;99.90
3348;DHT22;1687;49.540;8.574;2023-12-20T04:44:02;7.70;99.90
3348;DHT22;1687;49.540;8.574;2023-12-20T04:46:27;7.70;99.90
3348;DHT22;1687;49.540;8.574;2023-12-20T04:48:53;7.70;99.90
3348;DHT22;1687;49.540;8.574;2023-12-20T04:51:19;7.70;99.90
3348;DHT22;1687;49.540;8.574;2023-12-20T04:53:44;7.70;99.90
3348;DHT22;1687;49.540;8.574;2023-12-20T04:56:10;7.70;99.90
3348;DHT22;1687;49.540;8.574;2023-12-20T04:58:36;7.70;99.90
3348;DHT22;1687;49.540;8.574;2023-12-20T05:01:01;7.70;99.90
3348;DHT22;1687;49.540;8.574;2023-12-20T05:03:28;7.80;99.90
3348;DHT22;1687;49.540;8.574;2023-12-20T05:05:54;7.80;99.90
3348;DHT22;1687;49.540;8.574;2023-12-20T05:08:22;7.80;99.90
3348;DHT22;1687;49.540;8.574;2023-12-20T05:10:48;7.90;99.90
3348;DHT22;1687;49.540;8.574;2023-12-20T05:13:14;7.90;99.90
3348;DHT22;1687;49.540;8.574;2023-12-20T05:15:39;7.90;99.90
3348;DHT22;1687;49.540;8.574;2023-12-20T05:18:05;7.90;99.90
3348;DHT22;1687;49.540;8.574;2023-12-20T05:20:31;8.00;99.90
3348;DHT22;1687;49.540;8.574;2023-12-20T05:22:56;8.00;99.90
3348;DHT22;1687;49.540;8.574;2023-12-20T05:25:22;8.10;99.90
3348;DHT22;1687;49.540;8.574;2023-12-20T05:27:48;8.10;99.90
3348;DHT22;1687;49.540;8.574;2023-12-20T05:30:13;8.10;99.90
3348;DHT22;1687;49.540;8.574;2023-12-20T05:32:39;8.10;99.90
3348;DHT22;1687;49.540;8.574;2023-12-20T05:35:05;8.10;99.90
3348;DHT22;1687;49.540;8.574;2023-12-20T05:37:31;8.20;99.90
3348;DHT22;1687;49.540;8.574;2023-12-20T05:39:57;8.20;99.90
3348;DHT22;1687;49.540;8.574;2023-12-20T05:42:22;8.20;99.90
3348;DHT22;1687;49.540;8.574;2023-12-20T05:44:48;8.20;99.90
3348;DHT22;1687;49.540;8.574;2023-12-20T05:47:14;8.20;99.90
3348;DHT22;1687;49.540;8.574;2023-12-20T05:49:39;8.20;99.90
3348;DHT22;1687;49.540;8.574;2023-12-20T05:52:05;8.20;99.90
3348;DHT22;1687;49.540;8.574;2023-12-20T05:54:31;8.20;99.90
3348;DHT22;1687;49.540;8.574;2023-12-20T05:56:57;8.10;99.90
3348;DHT22;1687;49.540;8.574;2023-12-20T05:59:22;8.10;99.90
3348;DHT22;1687;49.540;8.574;2023-12-20T06:01:48;7.90;99.90
3348;DHT22;1687;49.540;8.574;2023-12-20T06:04:14;7.80;99.90
3348;DHT22;1687;49.540;8.574;2023-12-20T06:06:43;7.70;99.90
3348;DHT22;1687;49.540;8.574;2023-12-20T06:09:09;7.70;99.90
3348;DHT22;1687;49.540;8.574;2023-12-20T06:11:35;7.70;99.90
3348;DHT22;1687;49.540;8.574;2023-12-20T06:14:01;7.70;99.90
3348;DHT22;1687;49.540;8.574;2023-12-20T06:16:27;7.60;99.90
3348;DHT22;1687;49.540;8.574;2023-12-20T06:18:52;7.60;99.90
3348;DHT22;1687;49.540;8.574;2023-12-20T06:21:18;7.50;99.90
3348;DHT22;1687;49.540;8.574;2023-12-20T06:23:44;7.50;99.90
3348;DHT22;1687;49.540;8.574;2023-12-20T06:26:10;7.40;99.90
3348;DHT22;1687;49.540;8.574;2023-12-20T06:28:35;7.30;99.90
3348;DHT22;1687;49.540;8.574;2023-12-20T06:31:01;7.20;99.90
3348;DHT22;1687;49.540;8.574;2023-12-20T06:33:27;7.10;99.90
3348;DHT22;1687;49.540;8.574;2023-12-20T06:35:52;7.10;99.90
3348;DHT22;1687;49.540;8.574;2023-12-20T06:38:19;7.10;99.90
3348;DHT22;1687;49.540;8.574;2023-12-20T06:40:45;7.00;99.90
3348;DHT22;1687;49.540;8.574;2023-12-20T06:43:11;7.00;99.90
3348;DHT22;1687;49.540;8.574;2023-12-20T06:45:38;7.10;99.90
3348;DHT22;1687;49.540;8.574;2023-12-20T06:48:04;7.10;99.90
3348;DHT22;1687;49.540;8.574;2023-12-20T06:50:30;7.20;99.90
3348;DHT22;1687;49.540;8.574;2023-12-20T06:52:56;7.30;99.90
3348;DHT22;1687;49.540;8.574;2023-12-20T06:55:22;7.30;99.90
3348;DHT22;1687;49.540;8.574;2023-12-20T06:57:48;7.40;99.90
3348;DHT22;1687;49.540;8.574;2023-12-20T07:00:14;7.30;99.90
3348;DHT22;1687;49.540;8.574;2023-12-20T07:02:40;7.20;99.90
3348;DHT22;1687;49.540;8.574;2023-12-20T07:05:06;7.20;99.90
3348;DHT22;1687;49.540;8.574;2023-12-20T07:07:32;7.10;99.90
3348;DHT22;1687;49.540;8.574;2023-12-20T07:09:58;7.10;99.90
3348;DHT22;1687;49.540;8.574;2023-12-20T07:12:23;7.10;99.90
3348;DHT22;1687;49.540;8.574;2023-12-20T07:14:49;7.10;99.90
3348;DHT22;1687;49.540;8.574;2023-12-20T07:17:15;7.10;99.90
3348;DHT22;1687;49.540;8.574;2023-12-20T07:19:41;7.10;99.90
3348;DHT22;1687;49.540;8.574;2023-12-20T07:22:07;7.10;99.90
3348;DHT22;1687;49.540;8.574;2023-12-20T07:24:33;7.10;99.90
3348;DHT22;1687;49.540;8.574;2023-12-20T07:27:00;7.00;99.90
3348;DHT22;1687;49.540;8.574;2023-12-20T07:29:26;7.00;99.90
3348;DHT22;1687;49.540;8.574;2023-12-20T07:31:53;6.90;99.90
3348;DHT22;1687;49.540;8.574;2023-12-20T07:34:20;6.90;99.90
3348;DHT22;1687;49.540;8.574;2023-12-20T07:36:45;6.90;99.90
3348;DHT22;1687;49.540;8.574;2023-12-20T07:39:11;6.90;99.90
3348;DHT22;1687;49.540;8.574;2023-12-20T07:41:37;6.90;99.90
3348;DHT22;1687;49.540;8.574;2023-12-20T07:44:04;6.90;99.90
3348;DHT22;1687;49.540;8.574;2023-12-20T07:46:30;6.80;99.90
3348;DHT22;1687;49.540;8.574;2023-12-20T07:48:56;6.70;99.90
3348;DHT22;1687;49.540;8.574;2023-12-20T07:51:22;6.80;99.90
3348;DHT22;1687;49.540;8.574;2023-12-20T07:53:47;6.80;99.90
3348;DHT22;1687;49.540;8.574;2023-12-20T07:56:20;6.80;99.90
3348;DHT22;1687;49.540;8.574;2023-12-20T07:58:46;6.80;99.90
3348;DHT22;1687;49.540;8.574;2023-12-20T08:01:13;6.90;99.90
3348;DHT22;1687;49.540;8.574;2023-12-20T08:03:41;6.90;99.90
3348;DHT22;1687;49.540;8.574;2023-12-20T08:06:06;6.90;99.90
3348;DHT22;1687;49.540;8.574;2023-12-20T08:08:32;6.80;99.90
3348;DHT22;1687;49.540;8.574;2023-12-20T08:10:58;6.90;99.90
3348;DHT22;1687;49.540;8.574;2023-12-20T08:13:25;6.90;99.90
3348;DHT22;1687;49.540;8.574;2023-12-20T08:15:52;7.00;99.90
3348;DHT22;1687;49.540;8.574;2023-12-20T08:18:18;7.00;99.90
3348;DHT22;1687;49.540;8.574;2023-12-20T08:20:44;6.90;99.90
3348;DHT22;1687;49.540;8.574;2023-12-20T08:23:10;6.90;99.90
3348;DHT22;1687;49.540;8.574;2023-12-20T08:25:35;6.90;99.90
3348;DHT22;1687;49.540;8.574;2023-12-20T08:28:03;6.80;99.90
3348;DHT22;1687;49.540;8.574;2023-12-20T08:30:29;6.80;99.90
3348;DHT22;1687;49.540;8.574;2023-12-20T08:32:59;6.80;99.90
3348;DHT22;1687;49.540;8.574;2023-12-20T08:35:25;6.80;99.90
3348;DHT22;1687;49.540;8.574;2023-12-20T08:37:51;6.80;99.90
3348;DHT22;1687;49.540;8.574;2023-12-20T08:40:17;6.80;99.90
3348;DHT22;1687;49.540;8.574;2023-12-20T08:42:42;6.80;99.90
3348;DHT22;1687;49.540;8.574;2023-12-20T08:45:09;6.80;99.90
3348;DHT22;1687;49.540;8.574;2023-12-20T08:47:35;6.90;99.90
3348;DHT22;1687;49.540;8.574;2023-12-20T08:50:02;6.90;99.90
3348;DHT22;1687;49.540;8.574;2023-12-20T08:52:28;7.00;99.90
3348;DHT22;1687;49.540;8.574;2023-12-20T08:54:54;7.10;99.90
3348;DHT22;1687;49.540;8.574;2023-12-20T08:57:21;7.10;99.90
3348;DHT22;1687;49.540;8.574;2023-12-20T08:59:48;7.20;99.90
3348;DHT22;1687;49.540;8.574;2023-12-20T09:02:14;7.30;99.90
3348;DHT22;1687;49.540;8.574;2023-12-20T09:04:39;7.50;99.90
3348;DHT22;1687;49.540;8.574;2023-12-20T09:07:05;7.60;99.90
3348;DHT22;1687;49.540;8.574;2023-12-20T09:09:31;7.60;99.90
3348;DHT22;1687;49.540;8.574;2023-12-20T09:11:57;7.70;99.90
3348;DHT22;1687;49.540;8.574;2023-12-20T09:14:23;7.80;99.90
3348;DHT22;1687;49.540;8.574;2023-12-20T09:16:49;7.80;99.90
3348;DHT22;1687;49.540;8.574;2023-12-20T09:19:17;8.00;99.90
3348;DHT22;1687;49.540;8.574;2023-12-20T09:21:43;8.20;99.90
3348;DHT22;1687;49.540;8.574;2023-12-20T09:24:08;8.20;99.90
3348;DHT22;1687;49.540;8.574;2023-12-20T09:26:34;8.30;99.90
3348;DHT22;1687;49.540;8.574;2023-12-20T09:29:00;8.40;99.90
3348;DHT22;1687;49.540;8.574;2023-12-20T09:31:26;8.40;99.90
3348;DHT22;1687;49.540;8.574;2023-12-20T09:33:52;8.40;99.90
3348;DHT22;1687;49.540;8.574;2023-12-20T09:36:17;8.40;99.90
3348;DHT22;1687;49.540;8.574;2023-12-20T09:38:43;8.30;99.90
3348;DHT22;1687;49.540;8.574;2023-12-20T09:41:09;8.30;99.90
3348;DHT22;1687;49.540;8.574;2023-12-20T09:43:37;8.30;99.90
3348;DHT22;1687;49.540;8.574;2023-12-20T09:46:05;8.30;99.90
3348;DHT22;1687;49.540;8.574;2023-12-20T09:48:32;8.30;99.90
3348;DHT22;1687;49.540;8.574;2023-12-20T09:50:59;8.30;99.90
3348;DHT22;1687;49.540;8.574;2023-12-20T09:53:25;8.30;99.90
3348;DHT22;1687;49.540;8.574;2023-12-20T09:55:58;8.40;99.90
3348;DHT22;1687;49.540;8.574;2023-12-20T09:58:25;8.40;99.90
3348;DHT22;1687;49.540;8.574;2023-12-20T10:00:51;8.40;99.90
3348;DHT22;1687;49.540;8.574;2023-12-20T10:03:23;8.40;99.90
3348;DHT22;1687;49.540;8.574;2023-12-20T10:05:54;8.40;99.90
3348;DHT22;1687;49.540;8.574;2023-12-20T10:08:24;8.50;99.90
3348;DHT22;1687;49.540;8.574;2023-12-20T10:10:50;8.50;99.90
3348;DHT22;1687;49.540;8.574;2023-12-20T10:13:15;8.50;99.90
3348;DHT22;1687;49.540;8.574;2023-12-20T10:15:41;8.50;99.90
3348;DHT22;1687;49.540;8.574;2023-12-20T10:18:07;8.50;99.90
3348;DHT22;1687;49.540;8.574;2023-12-20T10:20:33;8.60;99.90
3348;DHT22;1687;49.540;8.574;2023-12-20T10:22:59;8.60;99.90
3348;DHT22;1687;49.540;8.574;2023-12-20T10:25:26;8.50;99.90
3348;DHT22;1687;49.540;8.574;2023-12-20T10:28:15;8.60;99.90
3348;DHT22;1687;49.540;8.574;2023-12-20T10:30:45;8.50;99.90
3348;DHT22;1687;49.540;8.574;2023-12-20T10:33:10;8.60;99.90
3348;DHT22;1687;49.540;8.574;2023-12-20T10:35:37;8.60;99.90
3348;DHT22;1687;49.540;8.574;2023-12-20T10:38:05;8.70;99.90
3348;DHT22;1687;49.540;8.574;2023-12-20T10:40:36;8.70;99.90
3348;DHT22;1687;49.540;8.574;2023-12-20T10:43:02;8.80;99.90
3348;DHT22;1687;49.540;8.574;2023-12-20T10:45:29;9.00;99.90
3348;DHT22;1687;49.540;8.574;2023-12-20T10:47:56;9.00;99.90
3348;DHT22;1687;49.540;8.574;2023-12-20T10:50:25;9.10;99.90
3348;DHT22;1687;49.540;8.574;2023-12-20T10:52:52;9.00;99.40
3348;DHT22;1687;49.540;8.574;2023-12-20T10:55:22;9.00;99.70
3348;DHT22;1687;49.540;8.574;2023-12-20T10:57:50;8.90;99.40
3348;DHT22;1687;49.540;8.574;2023-12-20T11:00:18;8.90;99.40
3348;DHT22;1687;49.540;8.574;2023-12-20T11:02:45;8.80;99.50
3348;DHT22;1687;49.540;8.574;2023-12-20T11:05:23;8.80;99.60
3348;DHT22;1687;49.540;8.574;2023-12-20T11:08:12;8.80;99.30
3348;DHT22;1687;49.540;8.574;2023-12-20T11:11:03;8.80;98.80
3348;DHT22;1687;49.540;8.574;2023-12-20T11:13:36;8.70;98.90
3348;DHT22;1687;49.540;8.574;2023-12-20T11:16:05;8.70;98.90
3348;DHT22;1687;49.540;8.574;2023-12-20T11:18:31;8.70;98.90
3348;DHT22;1687;49.540;8.574;2023-12-20T11:21:05;8.70;99.00
3348;DHT22;1687;49.540;8.574;2023-12-20T11:23:32;8.70;98.70
3348;DHT22;1687;49.540;8.574;2023-12-20T11:26:00;8.70;98.30
3348;DHT22;1687;49.540;8.574;2023-12-20T11:28:27;8.70;98.30
3348;DHT22;1687;49.540;8.574;2023-12-20T11:30:54;8.70;98.40
3348;DHT22;1687;49.540;8.574;2023-12-20T11:33:25;8.70;98.20
3348;DHT22;1687;49.540;8.574;2023-12-20T11:35:55;8.80;98.40
3348;DHT22;1687;49.540;8.574;2023-12-20T11:38:21;8.80;97.80
3348;DHT22;1687;49.540;8.574;2023-12-20T11:40:50;8.80;97.60
3348;DHT22;1687;49.540;8.574;2023-12-20T11:43:35;8.70;98.00
3348;DHT22;1687;49.540;8.574;2023-12-20T11:46:06;8.80;97.90
3348;DHT22;1687;49.540;8.574;2023-12-20T11:48:37;8.70;97.40
3348;DHT22;1687;49.540;8.574;2023-12-20T11:51:10;8.70;97.30
3348;DHT22;1687;49.540;8.574;2023-12-20T11:53:36;8.70;97.60
3348;DHT22;1687;49.540;8.574;2023-12-20T11:56:04;8.70;97.30
3348;DHT22;1687;49.540;8.574;2023-12-20T11:58:32;8.60;97.20
3348;DHT22;1687;49.540;8.574;2023-12-20T12:00:59;8.60;97.30
3348;DHT22;1687;49.540;8.574;2023-12-20T12:03:25;8.70;97.40
3348;DHT22;1687;49.540;8.574;2023-12-20T12:05:51;8.70;96.80
3348;DHT22;1687;49.540;8.574;2023-12-20T12:08:17;8.70;97.10
3348;DHT22;1687;49.540;8.574;2023-12-20T12:10:45;8.70;97.00
3348;DHT22;1687;49.540;8.574;2023-12-20T12:13:11;8.70;96.70
3348;DHT22;1687;49.540;8.574;2023-12-20T12:15:37;8.60;96.40
3348;DHT22;1687;49.540;8.574;2023-12-20T12:18:03;8.60;96.90
3348;DHT22;1687;49.540;8.574;2023-12-20T12:20:30;8.60;96.60
3348;DHT22;1687;49.540;8.574;2023-12-20T12:23:06;8.60;96.80
3348;DHT22;1687;49.540;8.574;2023-12-20T12:25:35;8.80;96.50
3348;DHT22;1687;49.540;8.574;2023-12-20T12:28:01;8.70;96.30
3348;DHT22;1687;49.540;8.574;2023-12-20T12:30:27;8.60;96.30
3348;DHT22;1687;49.540;8.574;2023-12-20T12:32:53;8.70;96.40
3348;DHT22;1687;49.540;8.574;2023-12-20T12:35:20;8.60;95.90
3348;DHT22;1687;49.540;8.574;2023-12-20T12:37:46;8.60;95.90
3348;DHT22;1687;49.540;8.574;2023-12-20T12:40:13;8.60;96.00
3348;DHT22;1687;49.540;8.574;2023-12-20T12:42:41;8.60;95.90
3348;DHT22;1687;49.540;8.574;2023-12-20T12:45:09;8.60;95.90
3348;DHT22;1687;49.540;8.574;2023-12-20T12:47:36;8.60;95.80
3348;DHT22;1687;49.540;8.574;2023-12-20T12:50:02;8.50;95.70
3348;DHT22;1687;49.540;8.574;2023-12-20T12:52:28;8.50;95.80
3348;DHT22;1687;49.540;8.574;2023-12-20T12:54:54;8.50;95.40
3348;DHT22;1687;49.540;8.574;2023-12-20T12:57:20;8.50;95.80
3348;DHT22;1687;49.540;8.574;2023-12-20T12:59:46;8.50;95.50
3348;DHT22;1687;49.540;8.574;2023-12-20T13:02:15;8.50;95.70
3348;DHT22;1687;49.540;8.574;2023-12-20T13:04:42;8.50;95.60
3348;DHT22;1687;49.540;8.574;2023-12-20T13:07:09;8.60;95.80
3348;DHT22;1687;49.540;8.574;2023-12-20T13:09:38;8.60;95.20
3348;DHT22;1687;49.540;8.574;2023-12-20T13:12:05;8.60;95.30
3348;DHT22;1687;49.540;8.574;2023-12-20T13:14:33;8.60;95.00
3348;DHT22;1687;49.540;8.574;2023-12-20T13:17:03;8.60;95.10
3348;DHT22;1687;49.540;8.574;2023-12-20T13:19:29;8.60;95.20
3348;DHT22;1687;49.540;8.574;2023-12-20T13:21:56;8.60;95.30
3348;DHT22;1687;49.540;8.574;2023-12-20T13:24:22;8.60;94.60
3348;DHT22;1687;49.540;8.574;2023-12-20T13:26:47;8.60;94.60
3348;DHT22;1687;49.540;8.574;2023-12-20T13:29:13;8.60;94.60
3348;DHT22;1687;49.540;8.574;2023-12-20T13:31:39;8.50;94.60
3348;DHT22;1687;49.540;8.574;2023-12-20T13:34:06;8.50;94.60
3348;DHT22;1687;49.540;8.574;2023-12-20T13:36:32;8.60;94.60
3348;DHT22;1687;49.540;8.574;2023-12-20T13:38:57;8.70;95.10
3348;DHT22;1687;49.540;8.574;2023-12-20T13:41:23;8.80;94.30
3348;DHT22;1687;49.540;8.574;2023-12-20T13:43:49;8.80;94.50
3348;DHT22;1687;49.540;8.574;2023-12-20T13:46:15;8.90;94.30
3348;DHT22;1687;49.540;8.574;2023-12-20T13:48:41;8.80;93.80
3348;DHT22;1687;49.540;8.574;2023-12-20T13:51:07;8.90;94.00
3348;DHT22;1687;49.540;8.574;2023-12-20T13:53:33;8.80;93.50
3348;DHT22;1687;49.540;8.574;2023-12-20T13:55:58;8.80;93.90
3348;DHT22;1687;49.540;8.574;2023-12-20T13:58:25;8.90;93.80
3348;DHT22;1687;49.540;8.574;2023-12-20T14:00:51;8.90;93.80
3348;DHT22;1687;49.540;8.574;2023-12-20T14:03:17;8.90;93.60
3348;DHT22;1687;49.540;8.574;2023-12-20T14:05:42;8.90;93.40
3348;DHT22;1687;49.540;8.574;2023-12-20T14:08:08;8.90;93.20
3348;DHT22;1687;49.540;8.574;2023-12-20T14:10:35;9.00;93.40
3348;DHT22;1687;49.540;8.574;2023-12-20T14:13:01;9.00;93.30
3348;DHT22;1687;49.540;8.574;2023-12-20T14:15:26;9.00;93.20
3348;DHT22;1687;49.540;8.574;2023-12-20T14:17:52;9.00;92.90
3348;DHT22;1687;49.540;8.574;2023-12-20T14:20:18;9.00;93.10
3348;DHT22;1687;49.540;8.574;2023-12-20T14:22:44;9.10;92.90
3348;DHT22;1687;49.540;8.574;2023-12-20T14:25:13;9.10;92.80
3348;DHT22;1687;49.540;8.574;2023-12-20T14:27:43;9.00;92.70
3348;DHT22;1687;49.540;8.574;2023-12-20T14:30:09;9.00;92.90
3348;DHT22;1687;49.540;8.574;2023-12-20T14:32:35;9.00;92.80
3348;DHT22;1687;49.540;8.574;2023-12-20T14:35:07;9.10;92.90
3348;DHT22;1687;49.540;8.574;2023-12-20T14:37:34;9.10;92.50
3348;DHT22;1687;49.540;8.574;2023-12-20T14:40:00;9.00;92.10
3348;DHT22;1687;49.540;8.574;2023-12-20T14:42:26;8.90;92.40
3348;DHT22;1687;49.540;8.574;2023-12-20T14:44:52;9.00;92.50
3348;DHT22;1687;49.540;8.574;2023-12-20T14:47:19;9.00;92.40
3348;DHT22;1687;49.540;8.574;2023-12-20T14:49:45;9.00;92.30
3348;DHT22;1687;49.540;8.574;2023-12-20T14:52:13;9.10;92.60
3348;DHT22;1687;49.540;8.574;2023-12-20T14:54:38;9.10;92.20
3348;DHT22;1687;49.540;8.574;2023-12-20T14:57:04;9.10;92.00
3348;DHT22;1687;49.540;8.574;2023-12-20T14:59:30;9.00;92.20
3348;DHT22;1687;49.540;8.574;2023-12-20T15:01:55;9.00;92.00
3348;DHT22;1687;49.540;8.574;2023-12-20T15:04:21;9.00;92.30
3348;DHT22;1687;49.540;8.574;2023-12-20T15:06:54;9.00;92.00
3348;DHT22;1687;49.540;8.574;2023-12-20T15:09:20;8.90;91.50
3348;DHT22;1687;49.540;8.574;2023-12-20T15:11:46;8.90;91.60
3348;DHT22;1687;49.540;8.574;2023-12-20T15:14:12;8.90;91.60
3348;DHT22;1687;49.540;8.574;2023-12-20T15:16:40;8.80;92.10
3348;DHT22;1687;49.540;8.574;2023-12-20T15:19:06;8.90;91.80
3348;DHT22;1687;49.540;8.574;2023-12-20T15:21:31;8.90;91.90
3348;DHT22;1687;49.540;8.574;2023-12-20T15:23:59;8.90;91.90
3348;DHT22;1687;49.540;8.574;2023-12-20T15:26:34;8.90;91.70
3348;DHT22;1687;49.540;8.574;2023-12-20T15:29:00;8.90;91.70
3348;DHT22;1687;49.540;8.574;2023-12-20T15:31:27;8.80;91.40
3348;DHT22;1687;49.540;8.574;2023-12-20T15:33:53;8.70;91.40
3348;DHT22;1687;49.540;8.574;2023-12-20T15:36:19;8.70;91.60
3348;DHT22;1687;49.540;8.574;2023-12-20T15:38:45;8.60;91.60
3348;DHT22;1687;49.540;8.574;2023-12-20T15:41:18;8.60;91.80
3348;DHT22;1687;49.540;8.574;2023-12-20T15:43:44;8.60;91.70
3348;DHT22;1687;49.540;8.574;2023-12-20T15:46:10;8.70;92.10
3348;DHT22;1687;49.540;8.574;2023-12-20T15:48:36;8.70;91.90
3348;DHT22;1687;49.540;8.574;2023-12-20T15:51:06;8.70;92.00
3348;DHT22;1687;49.540;8.574;2023-12-20T15:53:32;8.60;91.50
3348;DHT22;1687;49.540;8.574;2023-12-20T15:55:58;8.60;91.90
3348;DHT22;1687;49.540;8.574;2023-12-20T15:58:24;8.50;91.60
3348;DHT22;1687;49.540;8.574;2023-12-20T16:00:50;8.50;92.20
3348;DHT22;1687;49.540;8.574;2023-12-20T16:03:16;8.50;91.90
3348;DHT22;1687;49.540;8.574;2023-12-20T16:05:42;8.60;92.10
3348;DHT22;1687;49.540;8.574;2023-12-20T16:08:07;8.60;92.60
3348;DHT22;1687;49.540;8.574;2023-12-20T16:10:33;8.70;92.40
3348;DHT22;1687;49.540;8.574;2023-12-20T16:12:59;8.70;92.20